This is the latest recevied weather packets stored in our database for station/object HP1COO-13. If no packets are shown the sender has not sent any weather packets the latest 10 day(s).
| Time | Temp. | Humidity | Pressure | Rain* | Wind** | Luminosity | Snow |
|---|---|---|---|---|---|---|---|
| 1777414933 | 32.22° C | 60% | 1005.9 hPa | 0 mm | - | - | - |
| 1777414300 | 32.78° C | 58% | 1005.8 hPa | 0 mm | - | - | - |
| 1777413667 | 32.78° C | 57% | 1005.9 hPa | 0 mm | - | - | - |
| 1777413034 | 33.33° C | 55% | 1005.9 hPa | 0 mm | - | - | - |
| 1777412401 | 33.89° C | 53% | 1005.8 hPa | 0 mm | - | - | - |
| 1777411135 | 33.89° C | 54% | 1005.7 hPa | 0 mm | - | - | - |
| 1777410502 | 34.44° C | 51% | 1006 hPa | 0 mm | - | - | - |
| 1777409869 | 34.44° C | 51% | 1006 hPa | 0 mm | - | - | - |
| 1777409236 | 35° C | 50% | 1005.8 hPa | 0 mm | - | - | - |
| 1777408603 | 35° C | 50% | 1005.8 hPa | 0 mm | - | - | - |
| 1777407970 | 33.89° C | 54% | 1006 hPa | 0 mm | - | - | - |
| 1777407337 | 33.89° C | 55% | 1006 hPa | 0 mm | - | - | - |
| 1777406704 | 33.89° C | 55% | 1006 hPa | 0 mm | - | - | - |
| 1777406071 | 34.44° C | 54% | 1006.1 hPa | 0 mm | - | - | - |
| 1777405438 | 35° C | 54% | 1006.2 hPa | 0 mm | - | - | - |
| 1777404805 | 35° C | 54% | 1006.3 hPa | 0 mm | - | - | - |
| 1777403539 | 35° C | 53% | 1006.6 hPa | 0 mm | - | - | - |
| 1777402273 | 34.44° C | 53% | 1007.1 hPa | 0 mm | - | - | - |
| 1777401640 | 34.44° C | 54% | 1007.6 hPa | 0 mm | - | - | - |
| 1777401007 | 33.89° C | 54% | 1007.6 hPa | 0 mm | - | - | - |
| 1777400374 | 33.89° C | 54% | 1007.8 hPa | 0 mm | - | - | - |
| 1777399741 | 33.89° C | 55% | 1007.9 hPa | 0 mm | - | - | - |
| 1777399108 | 33.89° C | 55% | 1008 hPa | 0 mm | - | - | - |
| 1777398475 | 33.89° C | 55% | 1008.3 hPa | 0 mm | - | - | - |
| 1777397842 | 33.89° C | 56% | 1008.3 hPa | 0 mm | - | - | - |
* Rain latest hour (hover to see other rain measurements)
** Current wind speed in m/s (hover to see current wind gust speed)